sensor_id;sensor_type;location;lat;lon;timestamp;P1;durP1;ratioP1;P2;durP2;ratioP2
69748;SDS011;57019;52.354;6.584;2022-12-18T00:00:41;25.42;;;10.38;;
69748;SDS011;57019;52.354;6.584;2022-12-18T00:03:07;25.67;;;10.30;;
69748;SDS011;57019;52.354;6.584;2022-12-18T00:05:32;26.63;;;10.67;;
69748;SDS011;57019;52.354;6.584;2022-12-18T00:07:58;26.97;;;11.53;;
69748;SDS011;57019;52.354;6.584;2022-12-18T00:10:23;27.37;;;10.73;;
69748;SDS011;57019;52.354;6.584;2022-12-18T00:12:48;25.70;;;10.60;;
69748;SDS011;57019;52.354;6.584;2022-12-18T00:15:14;24.23;;;9.90;;
69748;SDS011;57019;52.354;6.584;2022-12-18T00:17:39;28.60;;;11.03;;
69748;SDS011;57019;52.354;6.584;2022-12-18T00:20:04;24.87;;;10.10;;
69748;SDS011;57019;52.354;6.584;2022-12-18T00:22:30;26.58;;;11.02;;
69748;SDS011;57019;52.354;6.584;2022-12-18T00:24:56;25.93;;;10.90;;
69748;SDS011;57019;52.354;6.584;2022-12-18T00:27:21;29.83;;;11.33;;
69748;SDS011;57019;52.354;6.584;2022-12-18T00:29:47;27.27;;;11.23;;
69748;SDS011;57019;52.354;6.584;2022-12-18T00:32:13;27.90;;;10.23;;
69748;SDS011;57019;52.354;6.584;2022-12-18T00:34:38;27.47;;;11.57;;
69748;SDS011;57019;52.354;6.584;2022-12-18T00:37:04;24.87;;;10.57;;
69748;SDS011;57019;52.354;6.584;2022-12-18T00:39:29;28.33;;;11.03;;
69748;SDS011;57019;52.354;6.584;2022-12-18T00:41:54;26.70;;;10.50;;
69748;SDS011;57019;52.354;6.584;2022-12-18T00:44:38;27.35;;;10.98;;
69748;SDS011;57019;52.354;6.584;2022-12-18T00:47:03;28.37;;;10.87;;
69748;SDS011;57019;52.354;6.584;2022-12-18T00:49:29;26.53;;;10.37;;
69748;SDS011;57019;52.354;6.584;2022-12-18T00:51:54;29.23;;;11.03;;
69748;SDS011;57019;52.354;6.584;2022-12-18T00:54:19;29.57;;;10.17;;
69748;SDS011;57019;52.354;6.584;2022-12-18T00:56:45;27.30;;;10.80;;
69748;SDS011;57019;52.354;6.584;2022-12-18T00:59:10;29.92;;;11.20;;
69748;SDS011;57019;52.354;6.584;2022-12-18T01:01:36;27.00;;;10.63;;
69748;SDS011;57019;52.354;6.584;2022-12-18T01:04:02;28.07;;;10.47;;
69748;SDS011;57019;52.354;6.584;2022-12-18T01:06:27;29.30;;;10.70;;
69748;SDS011;57019;52.354;6.584;2022-12-18T01:08:53;28.33;;;11.17;;
69748;SDS011;57019;52.354;6.584;2022-12-18T01:11:19;27.80;;;10.37;;
69748;SDS011;57019;52.354;6.584;2022-12-18T01:13:45;26.90;;;10.63;;
69748;SDS011;57019;52.354;6.584;2022-12-18T01:16:11;31.90;;;11.20;;
69748;SDS011;57019;52.354;6.584;2022-12-18T01:18:38;29.85;;;11.38;;
69748;SDS011;57019;52.354;6.584;2022-12-18T01:21:07;30.40;;;11.23;;
69748;SDS011;57019;52.354;6.584;2022-12-18T01:23:33;30.13;;;11.30;;
69748;SDS011;57019;52.354;6.584;2022-12-18T01:26:03;30.07;;;11.30;;
69748;SDS011;57019;52.354;6.584;2022-12-18T01:28:32;32.55;;;12.05;;
69748;SDS011;57019;52.354;6.584;2022-12-18T01:31:08;30.43;;;11.43;;
69748;SDS011;57019;52.354;6.584;2022-12-18T01:33:35;30.20;;;10.93;;
69748;SDS011;57019;52.354;6.584;2022-12-18T01:36:00;30.03;;;11.10;;
69748;SDS011;57019;52.354;6.584;2022-12-18T01:38:25;29.07;;;11.07;;
69748;SDS011;57019;52.354;6.584;2022-12-18T01:40:56;32.20;;;11.13;;
69748;SDS011;57019;52.354;6.584;2022-12-18T01:43:22;29.08;;;11.55;;
69748;SDS011;57019;52.354;6.584;2022-12-18T01:46:05;26.73;;;11.05;;
69748;SDS011;57019;52.354;6.584;2022-12-18T01:48:30;29.07;;;10.97;;
69748;SDS011;57019;52.354;6.584;2022-12-18T01:50:55;31.50;;;11.73;;
69748;SDS011;57019;52.354;6.584;2022-12-18T01:53:21;29.40;;;11.17;;
69748;SDS011;57019;52.354;6.584;2022-12-18T01:55:49;29.73;;;11.35;;
69748;SDS011;57019;52.354;6.584;2022-12-18T01:58:21;28.55;;;10.55;;
69748;SDS011;57019;52.354;6.584;2022-12-18T02:00:54;28.27;;;10.30;;
69748;SDS011;57019;52.354;6.584;2022-12-18T02:03:20;30.75;;;10.45;;
69748;SDS011;57019;52.354;6.584;2022-12-18T02:11:39;29.83;;;10.77;;
69748;SDS011;57019;52.354;6.584;2022-12-18T02:16:59;26.58;;;9.75;;
69748;SDS011;57019;52.354;6.584;2022-12-18T02:25:08;26.25;;;10.45;;
69748;SDS011;57019;52.354;6.584;2022-12-18T02:27:41;28.48;;;10.68;;
69748;SDS011;57019;52.354;6.584;2022-12-18T02:30:12;28.40;;;10.10;;
69748;SDS011;57019;52.354;6.584;2022-12-18T02:32:39;26.60;;;9.93;;
69748;SDS011;57019;52.354;6.584;2022-12-18T02:35:08;27.05;;;10.02;;
69748;SDS011;57019;52.354;6.584;2022-12-18T02:37:38;26.35;;;9.95;;
69748;SDS011;57019;52.354;6.584;2022-12-18T02:40:07;28.67;;;9.95;;
69748;SDS011;57019;52.354;6.584;2022-12-18T02:42:46;27.58;;;10.77;;
69748;SDS011;57019;52.354;6.584;2022-12-18T02:45:11;27.43;;;10.57;;
69748;SDS011;57019;52.354;6.584;2022-12-18T02:47:38;27.47;;;10.30;;
69748;SDS011;57019;52.354;6.584;2022-12-18T02:50:16;28.38;;;10.40;;
69748;SDS011;57019;52.354;6.584;2022-12-18T02:53:02;26.87;;;9.93;;
69748;SDS011;57019;52.354;6.584;2022-12-18T02:58:33;24.75;;;9.52;;
69748;SDS011;57019;52.354;6.584;2022-12-18T03:01:43;24.13;;;9.82;;
69748;SDS011;57019;52.354;6.584;2022-12-18T03:04:39;25.98;;;9.43;;
69748;SDS011;57019;52.354;6.584;2022-12-18T03:07:14;25.10;;;9.97;;
69748;SDS011;57019;52.354;6.584;2022-12-18T03:09:45;24.13;;;9.63;;
69748;SDS011;57019;52.354;6.584;2022-12-18T03:17:20;23.08;;;9.05;;
69748;SDS011;57019;52.354;6.584;2022-12-18T03:19:50;23.67;;;9.23;;
69748;SDS011;57019;52.354;6.584;2022-12-18T03:22:18;23.42;;;9.50;;
69748;SDS011;57019;52.354;6.584;2022-12-18T03:24:45;21.98;;;8.90;;
69748;SDS011;57019;52.354;6.584;2022-12-18T03:27:13;24.80;;;9.52;;
69748;SDS011;57019;52.354;6.584;2022-12-18T03:29:43;23.75;;;9.43;;
69748;SDS011;57019;52.354;6.584;2022-12-18T03:32:19;20.80;;;8.50;;
69748;SDS011;57019;52.354;6.584;2022-12-18T03:34:50;25.40;;;8.90;;
69748;SDS011;57019;52.354;6.584;2022-12-18T03:37:19;20.58;;;8.75;;
69748;SDS011;57019;52.354;6.584;2022-12-18T03:39:44;19.40;;;8.13;;
69748;SDS011;57019;52.354;6.584;2022-12-18T03:50:45;20.08;;;8.38;;
69748;SDS011;57019;52.354;6.584;2022-12-18T03:53:51;22.37;;;8.23;;
69748;SDS011;57019;52.354;6.584;2022-12-18T03:56:21;21.70;;;7.97;;
69748;SDS011;57019;52.354;6.584;2022-12-18T03:58:50;21.60;;;8.85;;
69748;SDS011;57019;52.354;6.584;2022-12-18T04:01:18;20.45;;;8.00;;
69748;SDS011;57019;52.354;6.584;2022-12-18T04:04:06;20.23;;;8.07;;
69748;SDS011;57019;52.354;6.584;2022-12-18T04:06:34;22.20;;;8.23;;
69748;SDS011;57019;52.354;6.584;2022-12-18T04:09:01;21.80;;;8.63;;
69748;SDS011;57019;52.354;6.584;2022-12-18T04:11:27;18.38;;;7.72;;
69748;SDS011;57019;52.354;6.584;2022-12-18T04:13:55;19.20;;;7.87;;
69748;SDS011;57019;52.354;6.584;2022-12-18T04:16:22;19.83;;;7.85;;
69748;SDS011;57019;52.354;6.584;2022-12-18T04:18:47;18.83;;;7.37;;
69748;SDS011;57019;52.354;6.584;2022-12-18T04:21:13;20.33;;;7.93;;
69748;SDS011;57019;52.354;6.584;2022-12-18T04:23:38;18.07;;;7.83;;
69748;SDS011;57019;52.354;6.584;2022-12-18T04:26:03;19.40;;;7.43;;
69748;SDS011;57019;52.354;6.584;2022-12-18T04:28:29;18.45;;;7.03;;
69748;SDS011;57019;52.354;6.584;2022-12-18T04:30:54;19.47;;;8.20;;
69748;SDS011;57019;52.354;6.584;2022-12-18T04:33:19;21.03;;;7.77;;
69748;SDS011;57019;52.354;6.584;2022-12-18T04:35:45;17.17;;;7.37;;
69748;SDS011;57019;52.354;6.584;2022-12-18T04:38:10;20.90;;;7.40;;
69748;SDS011;57019;52.354;6.584;2022-12-18T04:40:36;16.05;;;6.75;;
69748;SDS011;57019;52.354;6.584;2022-12-18T04:43:02;16.77;;;7.07;;
69748;SDS011;57019;52.354;6.584;2022-12-18T04:45:29;18.00;;;7.20;;
69748;SDS011;57019;52.354;6.584;2022-12-18T04:47:56;18.60;;;6.53;;
69748;SDS011;57019;52.354;6.584;2022-12-18T04:50:36;14.85;;;6.53;;
69748;SDS011;57019;52.354;6.584;2022-12-18T04:53:01;17.13;;;7.10;;
69748;SDS011;57019;52.354;6.584;2022-12-18T04:55:26;17.47;;;6.63;;
69748;SDS011;57019;52.354;6.584;2022-12-18T04:57:52;17.07;;;6.80;;
69748;SDS011;57019;52.354;6.584;2022-12-18T05:00:18;17.52;;;7.03;;
69748;SDS011;57019;52.354;6.584;2022-12-18T05:02:43;18.23;;;6.77;;
69748;SDS011;57019;52.354;6.584;2022-12-18T05:05:09;17.45;;;7.07;;
69748;SDS011;57019;52.354;6.584;2022-12-18T05:07:34;15.43;;;6.77;;
69748;SDS011;57019;52.354;6.584;2022-12-18T05:10:00;15.50;;;6.60;;
69748;SDS011;57019;52.354;6.584;2022-12-18T05:12:25;16.43;;;7.07;;
69748;SDS011;57019;52.354;6.584;2022-12-18T05:14:51;14.23;;;6.38;;
69748;SDS011;57019;52.354;6.584;2022-12-18T05:17:16;16.87;;;6.03;;
69748;SDS011;57019;52.354;6.584;2022-12-18T05:19:41;16.33;;;6.60;;
69748;SDS011;57019;52.354;6.584;2022-12-18T05:22:07;15.60;;;6.33;;
69748;SDS011;57019;52.354;6.584;2022-12-18T05:24:32;15.73;;;6.27;;
69748;SDS011;57019;52.354;6.584;2022-12-18T05:26:58;15.55;;;6.38;;
69748;SDS011;57019;52.354;6.584;2022-12-18T05:29:23;16.97;;;6.53;;
69748;SDS011;57019;52.354;6.584;2022-12-18T05:31:48;15.93;;;5.93;;
69748;SDS011;57019;52.354;6.584;2022-12-18T05:34:14;14.47;;;6.03;;
69748;SDS011;57019;52.354;6.584;2022-12-18T05:36:39;14.47;;;6.40;;
69748;SDS011;57019;52.354;6.584;2022-12-18T05:39:04;16.47;;;6.23;;
69748;SDS011;57019;52.354;6.584;2022-12-18T05:41:31;13.82;;;5.60;;
69748;SDS011;57019;52.354;6.584;2022-12-18T05:43:58;14.68;;;6.15;;
69748;SDS011;57019;52.354;6.584;2022-12-18T05:46:23;15.07;;;6.05;;
69748;SDS011;57019;52.354;6.584;2022-12-18T05:48:49;12.83;;;5.60;;
69748;SDS011;57019;52.354;6.584;2022-12-18T05:51:16;14.85;;;5.72;;
69748;SDS011;57019;52.354;6.584;2022-12-18T05:53:42;13.85;;;5.88;;
69748;SDS011;57019;52.354;6.584;2022-12-18T05:56:09;15.67;;;5.60;;
69748;SDS011;57019;52.354;6.584;2022-12-18T05:58:40;13.23;;;5.80;;
69748;SDS011;57019;52.354;6.584;2022-12-18T06:01:06;14.07;;;5.50;;
69748;SDS011;57019;52.354;6.584;2022-12-18T06:03:35;12.90;;;5.75;;
69748;SDS011;57019;52.354;6.584;2022-12-18T06:06:00;14.23;;;5.67;;
69748;SDS011;57019;52.354;6.584;2022-12-18T06:08:26;13.27;;;5.80;;
69748;SDS011;57019;52.354;6.584;2022-12-18T06:10:52;13.37;;;5.53;;
69748;SDS011;57019;52.354;6.584;2022-12-18T06:13:18;13.87;;;5.90;;
69748;SDS011;57019;52.354;6.584;2022-12-18T06:15:44;13.23;;;5.35;;
69748;SDS011;57019;52.354;6.584;2022-12-18T06:18:09;13.43;;;5.60;;
69748;SDS011;57019;52.354;6.584;2022-12-18T06:20:34;14.33;;;5.97;;
69748;SDS011;57019;52.354;6.584;2022-12-18T06:23:01;12.10;;;5.18;;
69748;SDS011;57019;52.354;6.584;2022-12-18T06:25:27;13.33;;;5.90;;
69748;SDS011;57019;52.354;6.584;2022-12-18T06:27:52;14.52;;;5.75;;
69748;SDS011;57019;52.354;6.584;2022-12-18T06:30:18;14.90;;;5.83;;
69748;SDS011;57019;52.354;6.584;2022-12-18T06:32:43;13.53;;;5.60;;
69748;SDS011;57019;52.354;6.584;2022-12-18T06:35:09;11.80;;;5.30;;
69748;SDS011;57019;52.354;6.584;2022-12-18T06:37:35;12.03;;;5.37;;
69748;SDS011;57019;52.354;6.584;2022-12-18T06:40:00;12.52;;;5.25;;
69748;SDS011;57019;52.354;6.584;2022-12-18T06:42:26;12.50;;;4.90;;
69748;SDS011;57019;52.354;6.584;2022-12-18T06:44:51;12.27;;;5.03;;
69748;SDS011;57019;52.354;6.584;2022-12-18T06:47:16;12.30;;;5.00;;
69748;SDS011;57019;52.354;6.584;2022-12-18T06:49:42;12.37;;;5.13;;
69748;SDS011;57019;52.354;6.584;2022-12-18T06:52:08;11.52;;;4.97;;
69748;SDS011;57019;52.354;6.584;2022-12-18T06:54:33;11.83;;;5.20;;
69748;SDS011;57019;52.354;6.584;2022-12-18T06:56:59;13.77;;;5.67;;
69748;SDS011;57019;52.354;6.584;2022-12-18T06:59:24;11.73;;;4.97;;
69748;SDS011;57019;52.354;6.584;2022-12-18T07:01:49;11.90;;;5.13;;
69748;SDS011;57019;52.354;6.584;2022-12-18T07:04:15;11.80;;;5.17;;
69748;SDS011;57019;52.354;6.584;2022-12-18T07:06:40;11.90;;;4.80;;
69748;SDS011;57019;52.354;6.584;2022-12-18T07:09:05;11.53;;;4.83;;
69748;SDS011;57019;52.354;6.584;2022-12-18T07:11:32;11.73;;;4.80;;
69748;SDS011;57019;52.354;6.584;2022-12-18T07:13:58;11.60;;;4.60;;
69748;SDS011;57019;52.354;6.584;2022-12-18T07:16:24;12.97;;;5.27;;
69748;SDS011;57019;52.354;6.584;2022-12-18T07:18:49;12.30;;;5.30;;
69748;SDS011;57019;52.354;6.584;2022-12-18T07:21:15;11.30;;;4.67;;
69748;SDS011;57019;52.354;6.584;2022-12-18T07:23:42;11.25;;;4.70;;
69748;SDS011;57019;52.354;6.584;2022-12-18T07:26:12;10.48;;;4.53;;
69748;SDS011;57019;52.354;6.584;2022-12-18T07:28:38;11.48;;;4.53;;
69748;SDS011;57019;52.354;6.584;2022-12-18T07:31:05;10.87;;;4.30;;
69748;SDS011;57019;52.354;6.584;2022-12-18T07:33:32;11.40;;;4.45;;
69748;SDS011;57019;52.354;6.584;2022-12-18T07:36:02;10.85;;;4.25;;
69748;SDS011;57019;52.354;6.584;2022-12-18T07:38:29;10.90;;;4.60;;
69748;SDS011;57019;52.354;6.584;2022-12-18T07:41:02;20.75;;;5.97;;
69748;SDS011;57019;52.354;6.584;2022-12-18T07:43:33;9.83;;;3.90;;
69748;SDS011;57019;52.354;6.584;2022-12-18T07:45:59;10.55;;;4.53;;
69748;SDS011;57019;52.354;6.584;2022-12-18T07:48:24;9.98;;;4.35;;
69748;SDS011;57019;52.354;6.584;2022-12-18T07:50:49;10.27;;;4.13;;
69748;SDS011;57019;52.354;6.584;2022-12-18T07:53:30;9.85;;;4.03;;
69748;SDS011;57019;52.354;6.584;2022-12-18T07:56:00;10.43;;;4.30;;
69748;SDS011;57019;52.354;6.584;2022-12-18T07:58:28;11.07;;;4.15;;
69748;SDS011;57019;52.354;6.584;2022-12-18T08:00:54;10.02;;;4.10;;
69748;SDS011;57019;52.354;6.584;2022-12-18T08:03:26;9.48;;;3.88;;
69748;SDS011;57019;52.354;6.584;2022-12-18T08:05:51;14.20;;;4.20;;
69748;SDS011;57019;52.354;6.584;2022-12-18T08:08:17;10.97;;;4.17;;
69748;SDS011;57019;52.354;6.584;2022-12-18T08:10:42;10.63;;;4.20;;
69748;SDS011;57019;52.354;6.584;2022-12-18T08:13:07;9.43;;;3.73;;
69748;SDS011;57019;52.354;6.584;2022-12-18T08:15:33;9.40;;;3.93;;
69748;SDS011;57019;52.354;6.584;2022-12-18T08:17:58;9.57;;;4.00;;
69748;SDS011;57019;52.354;6.584;2022-12-18T08:20:23;9.07;;;3.87;;
69748;SDS011;57019;52.354;6.584;2022-12-18T08:22:48;8.82;;;3.63;;
69748;SDS011;57019;52.354;6.584;2022-12-18T08:25:14;10.10;;;4.27;;
69748;SDS011;57019;52.354;6.584;2022-12-18T08:27:39;9.30;;;3.93;;
69748;SDS011;57019;52.354;6.584;2022-12-18T08:30:05;10.27;;;3.97;;
69748;SDS011;57019;52.354;6.584;2022-12-18T08:32:30;8.50;;;3.80;;
69748;SDS011;57019;52.354;6.584;2022-12-18T08:34:57;9.93;;;3.92;;
69748;SDS011;57019;52.354;6.584;2022-12-18T08:37:23;8.90;;;3.80;;
69748;SDS011;57019;52.354;6.584;2022-12-18T08:39:48;9.07;;;3.73;;
69748;SDS011;57019;52.354;6.584;2022-12-18T08:42:14;9.03;;;3.97;;
69748;SDS011;57019;52.354;6.584;2022-12-18T08:44:57;9.40;;;3.80;;
69748;SDS011;57019;52.354;6.584;2022-12-18T08:47:23;9.63;;;3.97;;
69748;SDS011;57019;52.354;6.584;2022-12-18T08:49:48;9.00;;;3.60;;
69748;SDS011;57019;52.354;6.584;2022-12-18T08:52:13;9.13;;;3.80;;
69748;SDS011;57019;52.354;6.584;2022-12-18T08:54:39;9.30;;;3.73;;
69748;SDS011;57019;52.354;6.584;2022-12-18T08:57:04;9.17;;;3.70;;
69748;SDS011;57019;52.354;6.584;2022-12-18T08:59:29;8.40;;;3.50;;
69748;SDS011;57019;52.354;6.584;2022-12-18T09:01:56;9.77;;;3.63;;
69748;SDS011;57019;52.354;6.584;2022-12-18T09:04:21;9.10;;;3.70;;
69748;SDS011;57019;52.354;6.584;2022-12-18T09:06:47;8.80;;;3.67;;
69748;SDS011;57019;52.354;6.584;2022-12-18T09:09:13;8.70;;;3.87;;
69748;SDS011;57019;52.354;6.584;2022-12-18T09:11:39;10.13;;;3.77;;
69748;SDS011;57019;52.354;6.584;2022-12-18T09:14:04;8.32;;;3.60;;
69748;SDS011;57019;52.354;6.584;2022-12-18T09:16:30;11.17;;;4.10;;
69748;SDS011;57019;52.354;6.584;2022-12-18T09:18:56;8.98;;;3.60;;
69748;SDS011;57019;52.354;6.584;2022-12-18T09:21:26;8.30;;;3.50;;
69748;SDS011;57019;52.354;6.584;2022-12-18T09:23:53;8.63;;;3.40;;
69748;SDS011;57019;52.354;6.584;2022-12-18T09:26:23;8.52;;;3.67;;
69748;SDS011;57019;52.354;6.584;2022-12-18T09:28:49;8.75;;;3.45;;
69748;SDS011;57019;52.354;6.584;2022-12-18T09:31:15;8.93;;;3.47;;
69748;SDS011;57019;52.354;6.584;2022-12-18T09:33:41;9.15;;;3.50;;
69748;SDS011;57019;52.354;6.584;2022-12-18T09:36:08;8.50;;;3.50;;
69748;SDS011;57019;52.354;6.584;2022-12-18T09:38:39;8.43;;;3.53;;
69748;SDS011;57019;52.354;6.584;2022-12-18T09:41:32;8.60;;;3.20;;
69748;SDS011;57019;52.354;6.584;2022-12-18T09:44:13;9.05;;;3.42;;
69748;SDS011;57019;52.354;6.584;2022-12-18T09:46:43;8.48;;;3.30;;
69748;SDS011;57019;52.354;6.584;2022-12-18T09:49:23;9.00;;;3.75;;
69748;SDS011;57019;52.354;6.584;2022-12-18T09:51:54;10.30;;;4.25;;
69748;SDS011;57019;52.354;6.584;2022-12-18T09:54:26;10.30;;;4.67;;
69748;SDS011;57019;52.354;6.584;2022-12-18T09:57:00;9.70;;;4.28;;
69748;SDS011;57019;52.354;6.584;2022-12-18T09:59:36;11.87;;;4.47;;
69748;SDS011;57019;52.354;6.584;2022-12-18T10:02:14;10.20;;;4.50;;
69748;SDS011;57019;52.354;6.584;2022-12-18T10:04:42;9.77;;;3.90;;
69748;SDS011;57019;52.354;6.584;2022-12-18T10:07:10;9.38;;;4.20;;
69748;SDS011;57019;52.354;6.584;2022-12-18T10:09:46;9.33;;;4.10;;
69748;SDS011;57019;52.354;6.584;2022-12-18T10:14:55;8.93;;;3.70;;
69748;SDS011;57019;52.354;6.584;2022-12-18T10:17:52;8.65;;;3.60;;
69748;SDS011;57019;52.354;6.584;2022-12-18T10:28:21;9.02;;;3.30;;
69748;SDS011;57019;52.354;6.584;2022-12-18T10:30:49;9.60;;;3.70;;
69748;SDS011;57019;52.354;6.584;2022-12-18T10:33:16;9.33;;;3.23;;
69748;SDS011;57019;52.354;6.584;2022-12-18T10:35:43;7.88;;;3.33;;
69748;SDS011;57019;52.354;6.584;2022-12-18T10:40:55;7.72;;;3.15;;
69748;SDS011;57019;52.354;6.584;2022-12-18T10:48:23;8.48;;;2.95;;
69748;SDS011;57019;52.354;6.584;2022-12-18T10:50:49;7.90;;;3.10;;
69748;SDS011;57019;52.354;6.584;2022-12-18T10:53:21;9.70;;;3.10;;
69748;SDS011;57019;52.354;6.584;2022-12-18T10:55:54;8.50;;;3.00;;
69748;SDS011;57019;52.354;6.584;2022-12-18T11:01:10;7.20;;;2.75;;
69748;SDS011;57019;52.354;6.584;2022-12-18T11:03:47;7.20;;;2.80;;
69748;SDS011;57019;52.354;6.584;2022-12-18T11:06:26;7.73;;;2.90;;
69748;SDS011;57019;52.354;6.584;2022-12-18T11:08:59;7.75;;;2.97;;
69748;SDS011;57019;52.354;6.584;2022-12-18T11:11:28;8.15;;;3.10;;
69748;SDS011;57019;52.354;6.584;2022-12-18T11:14:12;7.65;;;2.92;;
69748;SDS011;57019;52.354;6.584;2022-12-18T11:16:44;7.40;;;2.90;;
69748;SDS011;57019;52.354;6.584;2022-12-18T11:21:40;8.13;;;2.85;;
69748;SDS011;57019;52.354;6.584;2022-12-18T11:24:13;7.95;;;2.60;;
69748;SDS011;57019;52.354;6.584;2022-12-18T11:26:54;6.43;;;2.60;;
69748;SDS011;57019;52.354;6.584;2022-12-18T11:29:23;6.55;;;2.47;;
69748;SDS011;57019;52.354;6.584;2022-12-18T11:32:09;7.70;;;2.87;;
69748;SDS011;57019;52.354;6.584;2022-12-18T11:35:02;9.75;;;2.63;;
69748;SDS011;57019;52.354;6.584;2022-12-18T11:37:41;8.18;;;2.50;;
69748;SDS011;57019;52.354;6.584;2022-12-18T11:40:14;7.20;;;2.50;;
69748;SDS011;57019;52.354;6.584;2022-12-18T11:42:51;8.00;;;2.80;;
69748;SDS011;57019;52.354;6.584;2022-12-18T11:45:25;6.87;;;2.50;;
69748;SDS011;57019;52.354;6.584;2022-12-18T11:53:02;7.68;;;2.53;;
69748;SDS011;57019;52.354;6.584;2022-12-18T12:00:43;6.95;;;2.45;;
69748;SDS011;57019;52.354;6.584;2022-12-18T12:03:38;6.93;;;2.40;;
69748;SDS011;57019;52.354;6.584;2022-12-18T12:11:39;6.75;;;2.60;;
69748;SDS011;57019;52.354;6.584;2022-12-18T12:22:27;8.25;;;2.20;;
69748;SDS011;57019;52.354;6.584;2022-12-18T12:25:49;6.70;;;2.30;;
69748;SDS011;57019;52.354;6.584;2022-12-18T12:39:05;6.25;;;2.03;;
69748;SDS011;57019;52.354;6.584;2022-12-18T12:41:33;9.20;;;2.20;;
69748;SDS011;57019;52.354;6.584;2022-12-18T12:44:24;6.43;;;2.10;;
69748;SDS011;57019;52.354;6.584;2022-12-18T12:46:55;7.53;;;2.03;;
69748;SDS011;57019;52.354;6.584;2022-12-18T12:49:25;6.32;;;2.10;;
69748;SDS011;57019;52.354;6.584;2022-12-18T12:51:57;6.95;;;2.03;;
69748;SDS011;57019;52.354;6.584;2022-12-18T12:54:28;6.80;;;2.65;;
69748;SDS011;57019;52.354;6.584;2022-12-18T12:56:58;6.43;;;2.00;;
69748;SDS011;57019;52.354;6.584;2022-12-18T12:59:35;8.55;;;2.33;;
69748;SDS011;57019;52.354;6.584;2022-12-18T13:04:56;8.38;;;2.10;;
69748;SDS011;57019;52.354;6.584;2022-12-18T13:07:37;6.32;;;2.00;;
69748;SDS011;57019;52.354;6.584;2022-12-18T13:15:27;6.22;;;2.03;;
69748;SDS011;57019;52.354;6.584;2022-12-18T13:20:34;6.68;;;2.10;;
69748;SDS011;57019;52.354;6.584;2022-12-18T13:23:17;5.70;;;2.00;;
69748;SDS011;57019;52.354;6.584;2022-12-18T13:25:44;6.80;;;1.92;;
69748;SDS011;57019;52.354;6.584;2022-12-18T13:28:10;6.30;;;1.90;;
69748;SDS011;57019;52.354;6.584;2022-12-18T13:35:51;7.63;;;2.80;;
69748;SDS011;57019;52.354;6.584;2022-12-18T13:43:23;6.88;;;2.60;;
69748;SDS011;57019;52.354;6.584;2022-12-18T13:48:26;6.33;;;2.50;;
69748;SDS011;57019;52.354;6.584;2022-12-18T13:50:59;7.53;;;2.63;;
69748;SDS011;57019;52.354;6.584;2022-12-18T13:53:33;6.88;;;2.60;;
69748;SDS011;57019;52.354;6.584;2022-12-18T13:56:15;6.68;;;2.38;;
69748;SDS011;57019;52.354;6.584;2022-12-18T14:01:30;6.63;;;2.60;;
69748;SDS011;57019;52.354;6.584;2022-12-18T14:04:18;6.60;;;2.30;;
69748;SDS011;57019;52.354;6.584;2022-12-18T14:06:52;6.63;;;2.50;;
69748;SDS011;57019;52.354;6.584;2022-12-18T14:09:28;6.75;;;2.50;;
69748;SDS011;57019;52.354;6.584;2022-12-18T14:11:55;6.30;;;2.50;;
69748;SDS011;57019;52.354;6.584;2022-12-18T14:14:45;6.53;;;2.60;;
69748;SDS011;57019;52.354;6.584;2022-12-18T14:17:12;7.43;;;3.00;;
69748;SDS011;57019;52.354;6.584;2022-12-18T14:19:46;7.70;;;2.90;;
69748;SDS011;57019;52.354;6.584;2022-12-18T14:22:18;8.63;;;3.00;;
69748;SDS011;57019;52.354;6.584;2022-12-18T14:27:37;18.63;;;3.10;;
69748;SDS011;57019;52.354;6.584;2022-12-18T14:30:25;8.18;;;2.70;;
69748;SDS011;57019;52.354;6.584;2022-12-18T14:35:33;6.90;;;2.80;;
69748;SDS011;57019;52.354;6.584;2022-12-18T14:40:40;7.75;;;3.17;;
69748;SDS011;57019;52.354;6.584;2022-12-18T14:43:10;7.25;;;3.10;;
69748;SDS011;57019;52.354;6.584;2022-12-18T14:45:37;8.13;;;2.60;;
69748;SDS011;57019;52.354;6.584;2022-12-18T14:48:16;9.10;;;3.13;;
69748;SDS011;57019;52.354;6.584;2022-12-18T14:50:44;7.55;;;3.30;;
69748;SDS011;57019;52.354;6.584;2022-12-18T14:53:19;7.10;;;3.47;;
69748;SDS011;57019;52.354;6.584;2022-12-18T14:55:48;7.00;;;3.15;;
69748;SDS011;57019;52.354;6.584;2022-12-18T14:58:15;6.93;;;3.40;;
69748;SDS011;57019;52.354;6.584;2022-12-18T15:00:42;7.25;;;3.20;;
69748;SDS011;57019;52.354;6.584;2022-12-18T15:03:08;7.55;;;3.50;;
69748;SDS011;57019;52.354;6.584;2022-12-18T15:05:35;7.15;;;3.30;;
69748;SDS011;57019;52.354;6.584;2022-12-18T15:08:00;7.43;;;3.20;;
69748;SDS011;57019;52.354;6.584;2022-12-18T15:10:33;7.85;;;3.22;;
69748;SDS011;57019;52.354;6.584;2022-12-18T15:26:03;8.82;;;3.53;;
69748;SDS011;57019;52.354;6.584;2022-12-18T15:28:34;7.60;;;3.47;;
69748;SDS011;57019;52.354;6.584;2022-12-18T15:31:28;6.90;;;3.30;;
69748;SDS011;57019;52.354;6.584;2022-12-18T15:36:16;7.03;;;3.22;;
69748;SDS011;57019;52.354;6.584;2022-12-18T15:38:45;8.60;;;3.50;;
69748;SDS011;57019;52.354;6.584;2022-12-18T15:41:15;7.53;;;3.50;;
69748;SDS011;57019;52.354;6.584;2022-12-18T15:43:43;10.75;;;3.33;;
69748;SDS011;57019;52.354;6.584;2022-12-18T15:46:11;8.02;;;3.33;;
69748;SDS011;57019;52.354;6.584;2022-12-18T15:48:39;7.47;;;3.20;;
69748;SDS011;57019;52.354;6.584;2022-12-18T15:51:26;7.70;;;3.70;;
69748;SDS011;57019;52.354;6.584;2022-12-18T15:53:56;7.15;;;3.60;;
69748;SDS011;57019;52.354;6.584;2022-12-18T15:56:25;7.70;;;3.42;;
69748;SDS011;57019;52.354;6.584;2022-12-18T15:59:19;8.18;;;3.90;;
69748;SDS011;57019;52.354;6.584;2022-12-18T16:01:46;7.38;;;3.30;;
69748;SDS011;57019;52.354;6.584;2022-12-18T16:04:14;8.50;;;3.30;;
69748;SDS011;57019;52.354;6.584;2022-12-18T16:06:41;7.43;;;3.42;;
69748;SDS011;57019;52.354;6.584;2022-12-18T16:09:07;7.78;;;4.00;;
69748;SDS011;57019;52.354;6.584;2022-12-18T16:11:34;7.93;;;3.90;;
69748;SDS011;57019;52.354;6.584;2022-12-18T16:16:47;7.93;;;4.05;;
69748;SDS011;57019;52.354;6.584;2022-12-18T16:19:15;10.20;;;4.70;;
69748;SDS011;57019;52.354;6.584;2022-12-18T16:21:41;20.13;;;8.70;;
69748;SDS011;57019;52.354;6.584;2022-12-18T16:24:11;41.77;;;16.03;;
69748;SDS011;57019;52.354;6.584;2022-12-18T16:26:40;65.35;;;25.55;;
69748;SDS011;57019;52.354;6.584;2022-12-18T16:29:07;80.60;;;31.02;;
69748;SDS011;57019;52.354;6.584;2022-12-18T16:31:32;90.87;;;34.17;;
69748;SDS011;57019;52.354;6.584;2022-12-18T16:34:14;92.83;;;32.40;;
69748;SDS011;57019;52.354;6.584;2022-12-18T16:36:46;84.85;;;32.33;;
69748;SDS011;57019;52.354;6.584;2022-12-18T16:39:12;86.40;;;32.13;;
69748;SDS011;57019;52.354;6.584;2022-12-18T16:41:38;83.40;;;30.57;;
69748;SDS011;57019;52.354;6.584;2022-12-18T16:44:03;79.07;;;29.70;;
69748;SDS011;57019;52.354;6.584;2022-12-18T16:46:29;79.72;;;28.20;;
69748;SDS011;57019;52.354;6.584;2022-12-18T16:48:56;74.90;;;25.97;;
69748;SDS011;57019;52.354;6.584;2022-12-18T16:51:22;66.32;;;24.73;;
69748;SDS011;57019;52.354;6.584;2022-12-18T16:53:47;70.13;;;24.77;;
69748;SDS011;57019;52.354;6.584;2022-12-18T16:56:12;64.53;;;23.23;;
69748;SDS011;57019;52.354;6.584;2022-12-18T16:58:38;63.03;;;21.93;;
69748;SDS011;57019;52.354;6.584;2022-12-18T17:01:06;58.13;;;20.93;;
69748;SDS011;57019;52.354;6.584;2022-12-18T17:03:32;57.78;;;21.27;;
69748;SDS011;57019;52.354;6.584;2022-12-18T17:06:01;60.53;;;20.33;;
69748;SDS011;57019;52.354;6.584;2022-12-18T17:08:30;51.15;;;18.67;;
69748;SDS011;57019;52.354;6.584;2022-12-18T17:10:55;53.47;;;19.50;;